Time;durP1;ratioP1;P1;durP2;ratioP2;P2;SDS_P1;SDS_P2;PMS_P1;PMS_P2;Temp;Humidity;BMP_temperature;BMP_pressure;BME280_temperature;BME280_humidity;BME280_pressure;Samples;Min_cycle;Max_cycle;Signal;HPM_P1;HPM_P2
2021/07/18 00:02:11;;;;;;;13.93;12.73;;;19.00;99.90;;;;;;6221580;23;20407;-84
2021/07/18 00:04:39;;;;;;;16.60;13.83;;;19.00;99.90;;;;;;6222003;23;20438;-83
2021/07/18 00:07:06;;;;;;;17.50;12.20;;;19.00;99.90;;;;;;6221499;23;20409;-84
2021/07/18 00:09:32;;;;;;;17.77;12.80;;;19.00;99.90;;;;;;6222392;23;20418;-84
2021/07/18 00:11:59;;;;;;;17.50;13.57;;;19.00;99.90;;;;;;6221436;23;20994;-84
2021/07/18 00:14:26;;;;;;;14.70;13.40;;;19.00;99.90;;;;;;6221610;23;20427;-84
2021/07/18 00:16:53;;;;;;;14.60;13.10;;;19.00;99.90;;;;;;6222107;23;20986;-84
2021/07/18 00:19:20;;;;;;;15.23;13.93;;;19.10;99.90;;;;;;6221441;23;20403;-84
2021/07/18 00:21:48;;;;;;;14.67;12.97;;;19.00;99.90;;;;;;6221219;23;20417;-84
2021/07/18 00:24:15;;;;;;;15.23;13.63;;;19.00;99.90;;;;;;6221924;23;20413;-84
2021/07/18 00:26:42;;;;;;;15.80;14.37;;;19.00;99.90;;;;;;6222150;23;20412;-84
2021/07/18 00:29:08;;;;;;;14.97;13.57;;;19.00;99.90;;;;;;6221742;23;20433;-84
2021/07/18 00:31:36;;;;;;;14.67;12.80;;;19.00;99.90;;;;;;6221777;23;20415;-84
2021/07/18 00:34:03;;;;;;;15.97;14.00;;;18.90;99.90;;;;;;6221488;23;20411;-83
2021/07/18 00:36:30;;;;;;;16.47;14.80;;;18.90;99.90;;;;;;6222186;23;20420;-83
2021/07/18 00:38:58;;;;;;;15.47;13.97;;;18.90;99.90;;;;;;6221625;23;20929;-84
2021/07/18 00:41:24;;;;;;;15.90;14.20;;;18.90;99.90;;;;;;6221484;23;20412;-84
2021/07/18 00:43:52;;;;;;;16.40;14.90;;;18.90;99.90;;;;;;6220847;23;20414;-84
2021/07/18 00:46:18;;;;;;;15.40;13.90;;;18.80;99.90;;;;;;6220838;23;20435;-84
2021/07/18 00:48:45;;;;;;;14.03;12.67;;;18.80;99.90;;;;;;6221055;23;20421;-84
2021/07/18 00:51:12;;;;;;;15.80;14.30;;;18.80;99.90;;;;;;6221411;23;20418;-84
2021/07/18 00:53:39;;;;;;;16.43;14.83;;;18.80;99.90;;;;;;6221305;23;20411;-83
2021/07/18 00:56:07;;;;;;;14.70;12.57;;;18.80;99.90;;;;;;6221293;23;20427;-84
2021/07/18 00:58:34;;;;;;;13.43;12.13;;;18.80;99.90;;;;;;6221472;23;20778;-84
2021/07/18 01:01:01;;;;;;;14.90;12.50;;;18.70;99.90;;;;;;6221032;23;20902;-84
2021/07/18 01:03:28;;;;;;;13.00;11.70;;;18.70;99.90;;;;;;6221776;23;20419;-84
2021/07/18 01:05:55;;;;;;;15.00;12.60;;;18.60;99.90;;;;;;6221691;23;20435;-84
2021/07/18 01:08:22;;;;;;;12.03;10.83;;;18.60;99.90;;;;;;6220787;23;20414;-84
2021/07/18 01:10:49;;;;;;;11.87;10.60;;;18.50;99.90;;;;;;6221530;23;20414;-84
2021/07/18 01:13:17;;;;;;;12.03;10.83;;;18.50;99.90;;;;;;6221087;23;20726;-84
2021/07/18 01:15:45;;;;;;;13.00;11.70;;;18.50;99.90;;;;;;6221842;23;20431;-84
2021/07/18 01:18:13;;;;;;;11.73;10.63;;;18.50;99.90;;;;;;6221264;23;20443;-83
2021/07/18 01:20:41;;;;;;;12.10;11.00;;;18.50;99.90;;;;;;6221431;23;20737;-84
2021/07/18 01:23:09;;;;;;;12.30;11.20;;;18.50;99.90;;;;;;6220774;23;20413;-83
2021/07/18 01:25:37;;;;;;;12.77;10.00;;;18.40;99.90;;;;;;6220675;23;20442;-84
2021/07/18 01:28:06;;;;;;;10.30;9.30;;;18.40;99.90;;;;;;6221041;23;20913;-83
2021/07/18 01:30:33;;;;;;;10.07;9.03;;;18.40;99.90;;;;;;6220951;23;20417;-83
2021/07/18 01:33:00;;;;;;;11.57;10.47;;;18.20;99.90;;;;;;6221233;23;20424;-84
2021/07/18 01:35:27;;;;;;;9.83;8.90;;;18.20;99.90;;;;;;6221187;23;20430;-83
2021/07/18 01:37:54;;;;;;;10.57;9.70;;;18.20;99.90;;;;;;6220723;23;20501;-84
2021/07/18 01:40:22;;;;;;;11.40;10.30;;;18.20;99.90;;;;;;6221155;23;20415;-84
2021/07/18 01:42:50;;;;;;;10.70;9.80;;;18.10;99.90;;;;;;6220413;23;20403;-84
2021/07/18 01:45:16;;;;;;;10.67;9.57;;;18.00;99.90;;;;;;6220109;23;20949;-83
2021/07/18 01:47:44;;;;;;;10.17;8.60;;;18.00;99.90;;;;;;6221394;23;20814;-83
2021/07/18 01:50:13;;;;;;;9.90;8.90;;;18.10;99.90;;;;;;6220129;23;20440;-84
2021/07/18 01:52:40;;;;;;;11.93;8.20;;;18.00;99.90;;;;;;6220427;23;20433;-83
2021/07/18 01:55:08;;;;;;;11.17;9.13;;;18.00;99.90;;;;;;6220514;23;20831;-84
2021/07/18 01:57:36;;;;;;;8.87;7.97;;;17.90;99.90;;;;;;6220292;23;20446;-84
2021/07/18 02:00:06;;;;;;;8.13;7.33;;;17.90;99.90;;;;;;6220314;23;20411;-83
2021/07/18 02:02:33;;;;;;;8.33;7.63;;;17.90;99.90;;;;;;6220160;23;20440;-83
2021/07/18 02:04:59;;;;;;;7.93;7.20;;;17.80;99.90;;;;;;6221032;23;20430;-84
2021/07/18 02:07:27;;;;;;;7.40;6.80;;;17.80;99.90;;;;;;6220035;23;20412;-84
2021/07/18 02:09:55;;;;;;;7.83;7.10;;;17.70;99.90;;;;;;6220754;23;20407;-84
2021/07/18 02:12:21;;;;;;;8.00;7.20;;;17.70;99.90;;;;;;6220497;23;20411;-83
2021/07/18 02:14:49;;;;;;;7.07;6.47;;;17.70;99.90;;;;;;6220476;23;20952;-83
2021/07/18 02:17:16;;;;;;;7.37;6.43;;;17.70;99.90;;;;;;6220349;23;20772;-84
2021/07/18 02:19:43;;;;;;;7.57;6.77;;;17.70;99.90;;;;;;6218655;23;20411;-83
2021/07/18 02:22:11;;;;;;;8.17;7.37;;;17.80;99.90;;;;;;6219253;23;20808;-84
2021/07/18 02:24:37;;;;;;;8.07;7.27;;;17.70;99.90;;;;;;6220484;23;20422;-83
2021/07/18 02:27:07;;;;;;;7.17;5.90;;;17.60;99.90;;;;;;6220269;23;20412;-83
2021/07/18 02:29:34;;;;;;;8.20;7.50;;;17.60;99.90;;;;;;6219771;23;20965;-84
2021/07/18 02:32:02;;;;;;;9.33;8.53;;;17.60;99.90;;;;;;6220308;23;20413;-83
2021/07/18 02:34:29;;;;;;;11.33;7.80;;;17.60;99.90;;;;;;6220359;23;20431;-83
2021/07/18 02:36:55;;;;;;;6.73;6.23;;;17.60;99.90;;;;;;6220000;23;20406;-83
2021/07/18 02:39:22;;;;;;;8.40;6.70;;;17.60;99.90;;;;;;6220436;23;20736;-83
2021/07/18 02:41:49;;;;;;;8.90;6.27;;;17.50;99.90;;;;;;6220120;23;20410;-83
2021/07/18 02:44:17;;;;;;;7.63;7.00;;;17.50;99.90;;;;;;6219648;23;20418;-84
2021/07/18 02:46:44;;;;;;;8.30;7.37;;;17.40;99.90;;;;;;6220158;23;20394;-83
2021/07/18 02:49:12;;;;;;;6.47;5.90;;;17.40;99.90;;;;;;6220298;23;20402;-84
2021/07/18 02:51:39;;;;;;;9.03;7.43;;;17.40;99.90;;;;;;6219621;23;20413;-83
2021/07/18 02:54:06;;;;;;;9.57;6.83;;;17.30;99.90;;;;;;6220385;23;20408;-83
2021/07/18 02:56:33;;;;;;;6.53;5.93;;;17.30;99.90;;;;;;6220497;23;20408;-83
2021/07/18 02:58:59;;;;;;;7.50;6.80;;;17.30;99.90;;;;;;6220216;23;20782;-83
2021/07/18 03:01:26;;;;;;;6.50;5.90;;;17.20;99.90;;;;;;6219225;23;20410;-84
2021/07/18 03:03:53;;;;;;;7.00;6.30;;;17.20;99.90;;;;;;6219791;23;20410;-84
2021/07/18 03:06:21;;;;;;;6.67;5.90;;;17.20;99.90;;;;;;6219770;23;20433;-83
2021/07/18 03:08:47;;;;;;;6.10;5.60;;;17.20;99.90;;;;;;6219359;23;20409;-83
2021/07/18 03:11:14;;;;;;;7.93;6.00;;;17.30;99.90;;;;;;6220034;23;20407;-83
2021/07/18 03:13:41;;;;;;;6.27;5.67;;;17.20;99.90;;;;;;6219835;23;20741;-83
2021/07/18 03:16:08;;;;;;;7.17;6.53;;;17.20;99.90;;;;;;6219568;23;20437;-83
2021/07/18 03:18:34;;;;;;;6.93;6.30;;;17.20;99.90;;;;;;6219827;23;20452;-83
2021/07/18 03:21:01;;;;;;;7.77;6.00;;;17.10;99.90;;;;;;6220313;23;20416;-83
2021/07/18 03:23:29;;;;;;;7.30;6.60;;;17.10;99.90;;;;;;6219239;23;20718;-83
2021/07/18 03:25:56;;;;;;;7.40;6.73;;;17.00;99.90;;;;;;6219955;23;20437;-83
2021/07/18 03:28:23;;;;;;;6.00;5.40;;;17.00;99.90;;;;;;6219823;23;20414;-84
2021/07/18 03:30:50;;;;;;;6.83;6.23;;;17.00;99.90;;;;;;6219885;23;20409;-83
2021/07/18 03:33:17;;;;;;;8.57;6.37;;;17.00;99.90;;;;;;6219833;23;20420;-84
2021/07/18 03:35:44;;;;;;;10.27;6.63;;;17.00;99.90;;;;;;6219602;23;20434;-83
2021/07/18 03:38:11;;;;;;;7.67;6.97;;;17.00;99.90;;;;;;6219680;23;20438;-82
2021/07/18 03:40:39;;;;;;;9.73;7.03;;;16.90;99.90;;;;;;6219746;23;20406;-82
2021/07/18 03:43:05;;;;;;;7.70;7.00;;;16.80;99.90;;;;;;6219033;23;20417;-83
2021/07/18 03:45:32;;;;;;;8.97;8.07;;;16.70;99.90;;;;;;6218784;23;20440;-82
2021/07/18 03:47:59;;;;;;;8.50;6.57;;;16.60;99.90;;;;;;6219493;23;20405;-82
2021/07/18 03:50:26;;;;;;;8.07;7.40;;;16.60;99.90;;;;;;6219768;23;20445;-83
2021/07/18 03:52:53;;;;;;;9.27;7.50;;;16.60;99.90;;;;;;6219299;23;20413;-82
2021/07/18 03:55:20;;;;;;;7.70;6.90;;;16.60;99.90;;;;;;6219877;23;20497;-82
2021/07/18 03:57:48;;;;;;;10.10;8.30;;;16.60;99.90;;;;;;6219813;23;20445;-82
2021/07/18 04:00:17;;;;;;;6.97;6.37;;;16.60;99.90;;;;;;6219867;23;20408;-83
2021/07/18 04:02:44;;;;;;;7.50;6.80;;;16.60;99.90;;;;;;6219793;23;20419;-83
2021/07/18 04:05:11;;;;;;;8.77;7.17;;;16.50;99.90;;;;;;6219751;23;20956;-82
2021/07/18 04:07:38;;;;;;;7.73;7.13;;;16.50;99.90;;;;;;6219529;23;20409;-82
2021/07/18 04:10:06;;;;;;;6.17;5.67;;;16.50;99.90;;;;;;6220127;23;20730;-83
2021/07/18 04:12:33;;;;;;;6.73;5.57;;;16.40;99.90;;;;;;6218921;23;20915;-82
2021/07/18 04:15:01;;;;;;;10.20;6.17;;;16.40;99.90;;;;;;6219303;23;20430;-82
2021/07/18 04:17:28;;;;;;;7.50;6.80;;;16.40;99.90;;;;;;6219845;23;20428;-82
2021/07/18 04:19:54;;;;;;;6.23;5.70;;;16.40;99.90;;;;;;6218911;23;20410;-82
2021/07/18 04:22:21;;;;;;;7.50;5.37;;;16.40;99.90;;;;;;6219676;23;20415;-82
2021/07/18 04:24:48;;;;;;;8.13;5.93;;;16.40;99.90;;;;;;6219488;23;20435;-82
2021/07/18 04:27:14;;;;;;;6.50;5.87;;;16.40;99.90;;;;;;6226262;23;20409;-81
2021/07/18 04:29:41;;;;;;;9.60;5.60;;;16.40;99.90;;;;;;6233207;23;20471;-82
2021/07/18 04:32:10;;;;;;;7.13;6.50;;;16.40;99.90;;;;;;6235103;23;20405;-82
2021/07/18 04:34:40;;;;;;;7.70;6.90;;;16.50;99.90;;;;;;6225073;23;20428;-82
2021/07/18 04:37:07;;;;;;;7.50;6.83;;;16.50;99.90;;;;;;6221584;23;20433;-82
2021/07/18 04:39:34;;;;;;;7.33;6.70;;;16.50;99.90;;;;;;6221166;23;20451;-82
2021/07/18 04:42:01;;;;;;;8.30;6.30;;;16.60;99.90;;;;;;6220635;23;20423;-82
2021/07/18 04:44:27;;;;;;;6.80;5.60;;;16.60;99.90;;;;;;6220614;23;20796;-82
2021/07/18 04:46:56;;;;;;;7.13;6.40;;;16.50;99.90;;;;;;6222800;23;20398;-83
2021/07/18 04:49:25;;;;;;;6.87;6.00;;;16.60;99.90;;;;;;6222199;23;20413;-83
2021/07/18 04:51:52;;;;;;;5.90;5.40;;;16.60;99.90;;;;;;6221906;23;20412;-83
2021/07/18 04:54:19;;;;;;;6.40;5.23;;;16.60;99.90;;;;;;6222902;23;20424;-83
2021/07/18 04:56:46;;;;;;;5.57;5.07;;;16.60;99.90;;;;;;6221989;23;20741;-83
2021/07/18 04:59:13;;;;;;;5.50;5.00;;;16.60;99.90;;;;;;6222486;23;20782;-83
2021/07/18 05:01:40;;;;;;;5.00;4.60;;;16.60;99.90;;;;;;6222214;23;20413;-83
2021/07/18 05:04:06;;;;;;;5.33;4.87;;;16.60;99.90;;;;;;6222253;23;20409;-83
2021/07/18 05:06:35;;;;;;;5.03;4.63;;;16.60;99.90;;;;;;6221883;23;20459;-83
2021/07/18 05:09:01;;;;;;;5.80;4.10;;;16.70;99.90;;;;;;6222454;23;20406;-83
2021/07/18 05:11:28;;;;;;;4.27;3.60;;;16.70;99.90;;;;;;6222161;23;20441;-83
2021/07/18 05:13:55;;;;;;;4.17;3.87;;;16.70;99.90;;;;;;6222722;23;20735;-83
2021/07/18 05:16:21;;;;;;;4.70;3.33;;;16.70;99.90;;;;;;6222077;23;20429;-83
2021/07/18 05:18:48;;;;;;;4.43;3.33;;;16.80;99.90;;;;;;6222150;23;20445;-83
2021/07/18 05:21:15;;;;;;;4.93;4.13;;;16.80;99.90;;;;;;6222115;23;20752;-83
2021/07/18 05:23:44;;;;;;;5.50;3.90;;;17.00;99.90;;;;;;6221532;23;20409;-83
2021/07/18 05:26:10;;;;;;;9.83;4.57;;;16.90;99.90;;;;;;6222416;23;20430;-82
2021/07/18 05:28:37;;;;;;;5.90;3.53;;;17.00;99.90;;;;;;6222061;23;20725;-83
2021/07/18 05:31:07;;;;;;;3.47;3.17;;;17.00;99.90;;;;;;6222601;23;20409;-83
2021/07/18 05:33:33;;;;;;;3.73;3.33;;;17.10;99.90;;;;;;6222534;23;20415;-83
2021/07/18 05:36:00;;;;;;;3.50;3.10;;;17.10;99.90;;;;;;6221985;23;20443;-84
2021/07/18 05:38:27;;;;;;;5.90;3.20;;;17.10;99.90;;;;;;6221622;23;20460;-82
2021/07/18 05:40:55;;;;;;;3.67;3.37;;;17.20;99.90;;;;;;6221179;23;20420;-83
2021/07/18 05:43:22;;;;;;;3.10;2.80;;;17.20;99.90;;;;;;6221636;23;20414;-84
2021/07/18 05:45:48;;;;;;;2.97;2.67;;;17.30;99.90;;;;;;6221337;23;20974;-83
2021/07/18 05:48:21;;;;;;;3.87;3.50;;;17.40;99.90;;;;;;6221878;23;20409;-83
2021/07/18 05:50:48;;;;;;;3.73;3.40;;;17.50;99.90;;;;;;6222059;23;20450;-83
2021/07/18 05:53:14;;;;;;;5.37;3.47;;;17.50;99.90;;;;;;6222041;23;20414;-83
2021/07/18 05:55:41;;;;;;;3.30;2.90;;;17.60;99.90;;;;;;6221325;23;20428;-82
2021/07/18 05:58:10;;;;;;;3.63;3.30;;;17.60;99.90;;;;;;6222028;23;20410;-83
2021/07/18 06:00:40;;;;;;;2.83;2.63;;;17.60;99.90;;;;;;6221667;23;20429;-83
2021/07/18 06:03:06;;;;;;;5.87;3.47;;;17.70;99.90;;;;;;6221756;23;20494;-84
2021/07/18 06:05:34;;;;;;;3.57;3.13;;;17.70;99.90;;;;;;6222113;23;20437;-83
2021/07/18 06:08:01;;;;;;;4.13;3.83;;;17.80;99.90;;;;;;6221729;23;20740;-84
2021/07/18 06:10:28;;;;;;;4.53;3.40;;;17.80;99.90;;;;;;6222074;23;20417;-84
2021/07/18 06:12:55;;;;;;;3.93;2.80;;;17.80;99.90;;;;;;6221712;23;20411;-85
2021/07/18 06:15:24;;;;;;;3.10;2.80;;;17.80;99.90;;;;;;6221873;23;20455;-85
2021/07/18 06:17:51;;;;;;;2.53;2.33;;;17.80;99.90;;;;;;6222039;23;20407;-85
2021/07/18 06:20:19;;;;;;;4.30;2.80;;;17.90;99.90;;;;;;6222076;23;20443;-84
2021/07/18 06:22:46;;;;;;;3.83;3.53;;;17.90;99.90;;;;;;6221448;23;20449;-85
2021/07/18 06:25:14;;;;;;;4.63;2.57;;;18.00;99.90;;;;;;6222719;23;20431;-85
2021/07/18 06:27:41;;;;;;;3.00;2.77;;;18.00;99.90;;;;;;6221797;23;20418;-85
2021/07/18 06:30:10;;;;;;;4.60;2.90;;;18.00;99.90;;;;;;6222286;23;20492;-84
2021/07/18 06:32:39;;;;;;;5.77;2.87;;;18.10;99.90;;;;;;6221641;23;20408;-85
2021/07/18 06:35:09;;;;;;;2.87;2.63;;;18.10;99.90;;;;;;6222041;23;20434;-85
2021/07/18 06:37:35;;;;;;;2.80;2.60;;;18.10;99.90;;;;;;6221666;23;20414;-85
2021/07/18 06:40:04;;;;;;;3.93;3.23;;;18.20;99.90;;;;;;6222205;23;20446;-84
2021/07/18 06:42:31;;;;;;;3.00;2.10;;;18.20;99.90;;;;;;6221819;23;20423;-85
2021/07/18 06:44:58;;;;;;;3.13;2.83;;;18.20;99.90;;;;;;6221778;23;20461;-85
2021/07/18 06:47:25;;;;;;;2.90;2.70;;;18.30;99.90;;;;;;6221908;23;20502;-85
2021/07/18 06:49:53;;;;;;;3.03;2.57;;;18.40;99.90;;;;;;6222468;23;20408;-85
2021/07/18 06:52:20;;;;;;;3.00;2.67;;;18.50;99.90;;;;;;6222018;23;20414;-85
2021/07/18 06:54:47;;;;;;;5.63;4.10;;;18.60;99.90;;;;;;6222303;23;20436;-86
2021/07/18 06:57:14;;;;;;;5.83;3.00;;;18.70;99.90;;;;;;6222716;23;20409;-86
2021/07/18 06:59:40;;;;;;;2.57;2.37;;;18.70;99.90;;;;;;6222352;23;20444;-86
2021/07/18 07:02:08;;;;;;;2.80;2.53;;;18.70;99.90;;;;;;6222739;23;20418;-85
2021/07/18 07:04:35;;;;;;;2.47;2.30;;;18.80;99.90;;;;;;6222331;23;20433;-85
2021/07/18 07:07:04;;;;;;;4.40;2.70;;;18.80;99.90;;;;;;6222409;23;20419;-85
2021/07/18 07:09:30;;;;;;;3.13;2.60;;;18.80;99.90;;;;;;6221878;23;20420;-83
2021/07/18 07:11:57;;;;;;;2.03;1.93;;;18.90;99.90;;;;;;6222130;23;20407;-84
2021/07/18 07:14:24;;;;;;;3.37;2.97;;;18.90;99.90;;;;;;6223250;23;20433;-85
2021/07/18 07:16:51;;;;;;;3.80;3.10;;;19.00;99.90;;;;;;6223110;23;20746;-84
2021/07/18 07:19:17;;;;;;;3.00;2.70;;;19.00;99.90;;;;;;6222134;23;20444;-84
2021/07/18 07:21:44;;;;;;;4.00;2.73;;;19.00;99.90;;;;;;6221365;23;20419;-84
2021/07/18 07:24:12;;;;;;;4.37;3.63;;;19.10;99.90;;;;;;6223059;23;20474;-84
2021/07/18 07:26:39;;;;;;;4.00;3.20;;;19.10;99.90;;;;;;6222493;23;20412;-84
2021/07/18 07:29:06;;;;;;;4.30;3.30;;;19.20;99.90;;;;;;6222290;23;20411;-84
2021/07/18 07:31:33;;;;;;;4.70;3.43;;;19.20;99.90;;;;;;6222091;23;20411;-84
2021/07/18 07:34:00;;;;;;;4.00;2.33;;;19.30;99.90;;;;;;6223219;23;20412;-85
2021/07/18 07:36:26;;;;;;;3.63;3.33;;;19.40;99.90;;;;;;6223103;23;20411;-86
2021/07/18 07:38:55;;;;;;;2.90;2.67;;;19.40;99.90;;;;;;6222679;23;20448;-84
2021/07/18 07:41:23;;;;;;;4.63;4.17;;;19.40;99.90;;;;;;6222042;23;20456;-84
2021/07/18 07:43:53;;;;;;;3.70;3.40;;;19.50;99.90;;;;;;6221996;23;20411;-84
2021/07/18 07:46:20;;;;;;;3.80;3.50;;;19.50;99.90;;;;;;6222835;23;20432;-85
2021/07/18 07:48:46;;;;;;;2.63;2.27;;;19.60;99.90;;;;;;6222931;23;20499;-85
2021/07/18 07:51:13;;;;;;;3.13;2.70;;;19.60;99.90;;;;;;6223913;23;20413;-84
2021/07/18 07:53:40;;;;;;;5.07;3.30;;;19.80;99.90;;;;;;6222426;23;20412;-84
2021/07/18 07:56:07;;;;;;;3.73;3.47;;;19.80;99.90;;;;;;6222910;23;20437;-84
2021/07/18 07:58:35;;;;;;;3.10;2.77;;;19.90;99.90;;;;;;6222875;23;20413;-84
2021/07/18 08:01:02;;;;;;;3.10;2.77;;;20.00;99.90;;;;;;6223883;23;20735;-85
2021/07/18 08:03:28;;;;;;;5.30;3.63;;;20.00;99.90;;;;;;6222472;23;20412;-85
2021/07/18 08:05:55;;;;;;;3.10;2.90;;;20.10;99.90;;;;;;6225281;23;20428;-85
2021/07/18 08:08:22;;;;;;;3.50;3.20;;;20.10;99.90;;;;;;6225600;23;20488;-84
2021/07/18 08:10:49;;;;;;;5.03;2.83;;;20.20;99.90;;;;;;6226324;23;20472;-85
2021/07/18 08:13:15;;;;;;;2.93;2.73;;;20.20;99.90;;;;;;6229638;23;20417;-85
2021/07/18 08:15:44;;;;;;;2.80;2.60;;;20.20;99.90;;;;;;6230209;23;20430;-83
2021/07/18 08:18:10;;;;;;;6.13;2.80;;;20.30;99.90;;;;;;6225955;23;20405;-85
2021/07/18 08:20:37;;;;;;;5.80;2.80;;;20.30;99.90;;;;;;6225721;23;20450;-85
2021/07/18 08:23:04;;;;;;;2.90;2.70;;;20.40;99.90;;;;;;6224797;23;20408;-83
2021/07/18 08:25:31;;;;;;;6.17;3.60;;;20.40;99.90;;;;;;6225611;23;20983;-85
2021/07/18 08:27:58;;;;;;;8.80;3.70;;;20.40;99.90;;;;;;6226084;23;20435;-84
2021/07/18 08:30:25;;;;;;;3.67;3.40;;;20.50;99.90;;;;;;6225832;23;20408;-83
2021/07/18 08:32:53;;;;;;;5.20;3.63;;;20.50;99.90;;;;;;6224925;23;20404;-84
2021/07/18 08:35:21;;;;;;;4.30;4.00;;;20.60;99.90;;;;;;6225953;23;20454;-84
2021/07/18 08:37:47;;;;;;;4.90;4.40;;;20.80;99.90;;;;;;6225884;23;20420;-85
2021/07/18 08:40:15;;;;;;;3.10;2.80;;;20.80;99.90;;;;;;6226743;23;20442;-84
2021/07/18 08:42:42;;;;;;;4.47;3.63;;;20.80;99.90;;;;;;6226826;23;20473;-85
2021/07/18 08:45:11;;;;;;;6.87;4.10;;;20.90;99.90;;;;;;6226696;23;20521;-85
2021/07/18 08:47:38;;;;;;;6.37;3.50;;;21.00;99.90;;;;;;6226141;23;20415;-85
2021/07/18 08:50:09;;;;;;;5.70;3.77;;;21.10;99.90;;;;;;6224134;23;20401;-84
2021/07/18 08:52:36;;;;;;;3.87;3.27;;;21.30;99.90;;;;;;6225643;23;20404;-85
2021/07/18 08:55:04;;;;;;;4.00;3.60;;;21.40;99.90;;;;;;6226729;23;20432;-85
2021/07/18 08:57:32;;;;;;;4.00;3.20;;;21.50;99.90;;;;;;6226762;23;20412;-85
2021/07/18 08:59:59;;;;;;;4.90;4.50;;;21.50;99.90;;;;;;6226672;23;20446;-84
2021/07/18 09:02:26;;;;;;;3.87;3.40;;;21.60;99.90;;;;;;6226516;23;20414;-85
2021/07/18 09:04:52;;;;;;;3.53;3.23;;;21.70;99.90;;;;;;6227199;23;20431;-85
2021/07/18 09:07:21;;;;;;;5.90;3.63;;;21.70;99.90;;;;;;6234376;23;20438;-81
2021/07/18 09:09:49;;;;;;;3.90;3.50;;;21.80;99.90;;;;;;6236604;23;20491;-81
2021/07/18 09:12:17;;;;;;;2.90;2.70;;;21.80;99.90;;;;;;6237432;23;20410;-82
2021/07/18 09:14:47;;;;;;;8.97;4.00;;;21.90;99.90;;;;;;6229158;23;20433;-86
2021/07/18 09:17:16;;;;;;;4.20;3.13;;;22.00;99.90;;;;;;6226243;23;20410;-83
2021/07/18 09:19:44;;;;;;;5.80;3.50;;;22.10;99.90;;;;;;6225510;23;20448;-83
2021/07/18 09:22:16;;;;;;;2.90;2.70;;;22.20;99.90;;;;;;6217135;23;20407;-83
2021/07/18 09:24:47;;;;;;;3.80;3.40;;;22.30;99.90;;;;;;6226231;23;20424;-84
2021/07/18 09:27:17;;;;;;;4.30;3.13;;;22.40;99.90;;;;;;6224018;23;20403;-83
2021/07/18 09:29:46;;;;;;;3.57;3.03;;;22.40;99.90;;;;;;6220902;23;20394;-85
2021/07/18 09:32:15;;;;;;;4.13;3.77;;;22.50;99.90;;;;;;6217617;23;20418;-83
2021/07/18 09:34:44;;;;;;;3.20;3.00;;;22.60;99.90;;;;;;6220171;23;20433;-84
2021/07/18 09:37:13;;;;;;;4.33;2.67;;;22.70;99.90;;;;;;6224846;23;20411;-83
2021/07/18 09:39:41;;;;;;;3.80;3.20;;;22.70;99.90;;;;;;6222227;23;20442;-82
2021/07/18 09:42:09;;;;;;;6.73;3.77;;;22.80;99.90;;;;;;6221169;23;20414;-81
2021/07/18 09:44:45;;;;;;;4.73;3.07;;;22.80;99.90;;;;;;6217764;23;20492;-84
2021/07/18 09:47:11;;;;;;;5.00;3.40;;;23.00;99.90;;;;;;6218148;23;20417;-85
2021/07/18 09:49:39;;;;;;;3.90;3.60;;;23.10;99.90;;;;;;6219603;23;20412;-86
2021/07/18 09:52:13;;;;;;;3.27;2.97;;;23.20;99.90;;;;;;6222690;23;20439;-80
2021/07/18 09:54:40;;;;;;;3.47;3.17;;;23.30;99.90;;;;;;6224296;23;20438;-81
2021/07/18 09:57:10;;;;;;;3.90;3.50;;;23.40;99.90;;;;;;6224437;23;20932;-81
2021/07/18 09:59:38;;;;;;;3.43;3.00;;;23.40;99.70;;;;;;6222510;23;20490;-85
2021/07/18 10:02:05;;;;;;;4.07;2.70;;;23.40;99.30;;;;;;6219411;23;20446;-84
2021/07/18 10:04:39;;;;;;;4.00;3.27;;;23.50;99.80;;;;;;6217764;23;20433;-83
2021/07/18 10:07:06;;;;;;;3.23;2.93;;;23.40;99.10;;;;;;6220817;23;21048;-83
2021/07/18 10:09:34;;;;;;;4.63;3.10;;;23.40;99.40;;;;;;6220616;23;20458;-86
2021/07/18 10:12:01;;;;;;;5.03;3.00;;;23.50;99.60;;;;;;6215993;23;21013;-83
2021/07/18 10:14:29;;;;;;;3.37;3.07;;;23.60;99.10;;;;;;6214120;23;21140;-84
2021/07/18 10:16:57;;;;;;;4.07;2.70;;;23.60;98.10;;;;;;6218753;23;20406;-80
2021/07/18 10:19:25;;;;;;;4.70;3.23;;;23.60;98.90;;;;;;6216010;23;20451;-85
2021/07/18 10:21:52;;;;;;;2.97;2.67;;;23.70;98.70;;;;;;6219401;23;20421;-84
2021/07/18 10:24:19;;;;;;;3.60;3.07;;;23.70;98.50;;;;;;6216734;23;20411;-84
2021/07/18 10:26:47;;;;;;;4.00;3.40;;;23.80;98.40;;;;;;6216411;23;20421;-86
2021/07/18 10:29:14;;;;;;;3.30;2.97;;;23.90;98.30;;;;;;6220781;23;20426;-84
2021/07/18 10:31:49;;;;;;;4.67;3.23;;;24.00;98.10;;;;;;6223470;23;20405;-85
2021/07/18 10:34:17;;;;;;;3.70;3.40;;;24.00;97.50;;;;;;6221533;23;20389;-83
2021/07/18 10:36:44;;;;;;;3.70;3.27;;;24.10;97.40;;;;;;6221133;23;20413;-81
2021/07/18 10:39:31;;;;;;;5.40;3.30;;;24.10;96.90;;;;;;6221737;23;20411;-81
2021/07/18 10:41:59;;;;;;;2.80;2.60;;;24.20;97.30;;;;;;6221489;23;20416;-82
2021/07/18 10:44:37;;;;;;;3.87;3.50;;;24.30;98.00;;;;;;6220676;23;20440;-81
2021/07/18 10:47:06;;;;;;;6.00;4.10;;;24.50;96.90;;;;;;6221056;23;20389;-83
2021/07/18 10:49:49;;;;;;;3.20;2.97;;;24.50;97.40;;;;;;6221061;23;20405;-84
2021/07/18 10:52:17;;;;;;;4.77;3.30;;;24.60;96.90;;;;;;6220330;23;20400;-82
2021/07/18 10:54:44;;;;;;;3.50;3.20;;;24.70;97.00;;;;;;6219388;23;20425;-82
2021/07/18 10:57:22;;;;;;;3.87;3.57;;;24.80;97.20;;;;;;6220847;23;20405;-80
2021/07/18 10:59:49;;;;;;;4.47;4.03;;;24.90;97.20;;;;;;6221451;23;20445;-81
2021/07/18 11:02:19;;;;;;;4.07;3.50;;;25.00;97.20;;;;;;6220944;23;20409;-82
2021/07/18 11:04:48;;;;;;;3.80;2.90;;;25.20;97.00;;;;;;6221479;23;20437;-81
2021/07/18 11:07:29;;;;;;;3.87;3.10;;;25.40;95.80;;;;;;6220778;23;20413;-83
2021/07/18 11:09:57;;;;;;;4.67;3.37;;;25.50;95.30;;;;;;6220152;23;20396;-82
2021/07/18 11:12:25;;;;;;;3.37;3.00;;;25.60;95.20;;;;;;6220484;23;20437;-83
2021/07/18 11:14:53;;;;;;;4.10;3.73;;;25.80;95.00;;;;;;6219991;23;20498;-84
2021/07/18 11:17:28;;;;;;;3.57;2.77;;;26.00;94.20;;;;;;6220084;23;20407;-83
2021/07/18 11:20:00;;;;;;;3.40;3.10;;;26.20;94.10;;;;;;6220325;23;20532;-83
2021/07/18 11:23:02;;;;;;;3.57;3.10;;;26.70;94.40;;;;;;6220170;23;20412;-84
2021/07/18 11:25:43;;;;;;;3.00;2.80;;;27.20;94.60;;;;;;6220446;23;20962;-84
2021/07/18 11:28:48;;;;;;;4.93;3.07;;;27.90;92.60;;;;;;6221877;23;20490;-83
2021/07/18 11:31:22;;;;;;;5.20;2.80;;;28.40;92.40;;;;;;6173569;23;20425;-85
2021/07/18 11:34:07;;;;;;;4.57;3.10;;;28.90;87.80;;;;;;6219774;23;20387;-83
2021/07/18 11:37:10;;;;;;;3.37;2.73;;;28.90;87.70;;;;;;6220798;23;20388;-82
2021/07/18 11:39:37;;;;;;;3.33;2.90;;;28.70;88.50;;;;;;6099674;23;20403;-84
2021/07/18 11:42:08;;;;;;;5.90;3.07;;;28.90;87.20;;;;;;6098866;23;20513;-82
2021/07/18 11:44:36;;;;;;;3.97;2.93;;;29.30;86.60;;;;;;6158848;23;20549;-83
2021/07/18 11:47:12;;;;;;;3.30;2.70;;;29.50;84.20;;;;;;6221264;23;20419;-83
2021/07/18 11:49:42;;;;;;;3.40;3.10;;;29.60;81.50;;;;;;6221095;23;20393;-83
2021/07/18 11:52:11;;;;;;;5.17;3.53;;;29.70;81.90;;;;;;6220654;23;20396;-83
2021/07/18 11:54:38;;;;;;;3.03;2.83;;;29.80;83.10;;;;;;6220293;23;20432;-83
2021/07/18 11:57:09;;;;;;;3.83;3.23;;;30.00;81.90;;;;;;6220931;23;20410;-84
2021/07/18 11:59:38;;;;;;;4.00;2.90;;;30.40;80.60;;;;;;6221526;23;20400;-83
2021/07/18 12:02:06;;;;;;;3.33;3.03;;;30.90;81.20;;;;;;6220661;23;20447;-83
2021/07/18 12:04:33;;;;;;;3.43;3.13;;;31.20;76.60;;;;;;6221670;23;20437;-84
2021/07/18 12:07:05;;;;;;;4.00;3.37;;;31.20;74.00;;;;;;6221138;23;20463;-84
2021/07/18 12:09:37;;;;;;;2.90;2.57;;;31.10;73.10;;;;;;6223827;23;20394;-81
2021/07/18 12:12:05;;;;;;;3.53;3.23;;;30.90;72.90;;;;;;6226885;23;20396;-80
2021/07/18 12:14:34;;;;;;;3.33;3.03;;;30.90;74.20;;;;;;6228438;23;20426;-79
2021/07/18 12:17:02;;;;;;;4.20;3.80;;;31.00;73.30;;;;;;6227654;23;20437;-80
2021/07/18 12:19:30;;;;;;;4.07;3.73;;;31.20;71.90;;;;;;6227926;23;20422;-80
2021/07/18 12:21:59;;;;;;;5.30;3.30;;;31.30;72.00;;;;;;6228945;23;20437;-81
2021/07/18 12:24:29;;;;;;;3.57;3.37;;;31.40;71.60;;;;;;6227293;23;20753;-82
2021/07/18 12:27:08;;;;;;;3.30;3.00;;;31.70;72.40;;;;;;6223756;23;20471;-82
2021/07/18 12:29:36;;;;;;;3.50;3.20;;;32.30;71.70;;;;;;6223201;23;20460;-82
2021/07/18 12:32:04;;;;;;;3.70;3.40;;;32.70;70.90;;;;;;6222008;23;20412;-81
2021/07/18 12:34:32;;;;;;;6.00;4.73;;;33.20;70.40;;;;;;6220198;23;20432;-82
2021/07/18 12:37:02;;;;;;;5.80;5.10;;;33.40;64.00;;;;;;6220324;23;20426;-81
2021/07/18 12:39:32;;;;;;;6.33;5.73;;;33.70;65.90;;;;;;6224029;23;20415;-81
2021/07/18 12:42:01;;;;;;;7.37;6.67;;;33.70;63.70;;;;;;6222382;23;20455;-82
2021/07/18 12:44:31;;;;;;;8.17;7.37;;;33.80;63.30;;;;;;6223021;23;20435;-82
2021/07/18 12:47:31;;;;;;;8.90;8.10;;;34.10;62.20;;;;;;6223529;23;20420;-82
2021/07/18 12:50:29;;;;;;;8.37;7.77;;;34.40;59.80;;;;;;6224195;23;20405;-82